Telford, Pennsylvania
Current Conditions -  °F | °C
As of 10:15 AM on Friday 19 Dec 2014 (Local Time) from KUKT Reporting Station
Overcast Overcast  
Wind Chill: 29°   Ceiling: 2600
Heat Index: 36°   Visibility: 10mi
Dew Point: 25°   Wind: 9mph
Humidity: 65%   Direction: 350°N
Pressure: 30.08"   Gusts: NA
Location:  40.32°N, 75.33°W
Report Text: KUKT 191515Z AUTO 35008KT 10SM OVC026 02/M04 A3008 RMK AO1
Loading
Personal Weather Stations






























Interactive Weather Map New forecast layout! Learn more

10-Day Weather Forecast

Advertisements
Track Severe Weather on mobile